createdAt,value
2019-06-01T00:00:44.723Z,11.90
2019-06-01T00:03:13.613Z,11.80
2019-06-01T00:05:42.686Z,11.80
2019-06-01T00:08:12.115Z,11.70
2019-06-01T00:10:41.190Z,11.70
2019-06-01T00:13:10.621Z,11.70
2019-06-01T00:15:39.909Z,11.60
2019-06-01T00:18:09.290Z,11.60
2019-06-01T00:20:38.094Z,11.60
2019-06-01T00:23:06.921Z,11.60
2019-06-01T00:25:35.796Z,11.60
2019-06-01T00:28:05.069Z,11.60
2019-06-01T00:30:33.881Z,11.70
2019-06-01T00:33:03.110Z,11.80
2019-06-01T00:35:32.403Z,11.80
2019-06-01T00:38:01.237Z,11.70
2019-06-01T00:40:30.118Z,11.60
2019-06-01T00:42:59.760Z,11.60
2019-06-01T00:45:28.958Z,11.50
2019-06-01T00:47:58.270Z,11.40
2019-06-01T00:50:27.155Z,11.40
2019-06-01T00:52:56.547Z,11.30
2019-06-01T00:55:25.735Z,11.20
2019-06-01T00:57:55.159Z,11.10
2019-06-01T01:00:24.435Z,11.10
2019-06-01T01:02:54.402Z,11.00
2019-06-01T01:05:23.502Z,11.00
2019-06-01T01:07:53.553Z,11.00
2019-06-01T01:10:22.926Z,11.00
2019-06-01T01:13:07.581Z,11.10
2019-06-01T01:15:37.873Z,11.00
2019-06-01T01:18:08.691Z,11.00
2019-06-01T01:20:56.309Z,11.10
2019-06-01T01:23:26.199Z,11.10
2019-06-01T01:25:54.992Z,11.00
2019-06-01T01:28:24.144Z,10.90
2019-06-01T01:31:08.406Z,10.90
2019-06-01T01:33:24.059Z,10.80
2019-06-01T01:35:54.190Z,10.70
2019-06-01T01:38:23.235Z,10.70
2019-06-01T01:40:52.335Z,10.70
2019-06-01T01:43:21.375Z,10.70
2019-06-01T01:45:50.703Z,10.70
2019-06-01T01:48:20.273Z,10.80
2019-06-01T01:50:50.222Z,10.70
2019-06-01T01:53:19.366Z,10.80
2019-06-01T01:55:48.487Z,10.80
2019-06-01T01:58:17.368Z,10.80
2019-06-01T02:00:47.075Z,10.80
2019-06-01T02:03:16.318Z,10.70
2019-06-01T02:05:45.871Z,10.70
2019-06-01T02:08:15.970Z,10.70
2019-06-01T02:10:45.483Z,10.70
2019-06-01T02:13:14.983Z,10.70
2019-06-01T02:15:44.611Z,10.60
2019-06-01T02:18:13.918Z,10.50
2019-06-01T02:20:43.469Z,10.40
2019-06-01T02:23:12.635Z,10.30
2019-06-01T02:25:41.596Z,10.20
2019-06-01T02:28:10.722Z,10.10
2019-06-01T02:30:39.989Z,10.10
2019-06-01T02:33:09.111Z,10.00
2019-06-01T02:35:38.241Z,10.00
2019-06-01T02:38:07.455Z,10.00
2019-06-01T02:40:36.884Z,10.10
2019-06-01T02:43:06.985Z,10.00
2019-06-01T02:45:36.264Z,10.10
2019-06-01T02:48:06.554Z,10.20
2019-06-01T02:50:35.475Z,10.10
2019-06-01T02:53:05.776Z,10.10
2019-06-01T02:55:35.113Z,10.10
2019-06-01T02:58:04.530Z,10.00
2019-06-01T03:01:20.725Z,10.00
2019-06-01T03:03:51.406Z,10.00
2019-06-01T03:06:20.603Z,10.00
2019-06-01T03:08:52.633Z,10.00
2019-06-01T03:11:25.440Z,10.00
2019-06-01T03:13:58.283Z,10.00
2019-06-01T03:16:30.935Z,10.00
2019-06-01T03:19:01.938Z,9.90
2019-06-01T03:21:34.619Z,9.90
2019-06-01T03:24:09.047Z,9.80
2019-06-01T03:26:46.445Z,9.80
2019-06-01T03:29:18.106Z,9.80
2019-06-01T03:31:47.563Z,9.80
2019-06-01T03:34:17.034Z,9.80
2019-06-01T03:36:45.988Z,9.80
2019-06-01T03:39:15.014Z,9.70
2019-06-01T03:41:44.050Z,9.80
2019-06-01T03:44:13.061Z,9.80
2019-06-01T03:46:42.596Z,9.80
2019-06-01T03:49:11.981Z,9.90
2019-06-01T03:51:41.170Z,10.10
2019-06-01T03:54:10.303Z,10.50
2019-06-01T03:56:39.542Z,10.90
2019-06-01T03:59:09.367Z,11.50
2019-06-01T04:01:38.782Z,11.90
2019-06-01T04:04:09.233Z,12.40
2019-06-01T04:06:38.754Z,12.50
2019-06-01T04:09:09.734Z,13.00
2019-06-01T04:11:38.814Z,13.40
2019-06-01T04:14:07.992Z,13.50
2019-06-01T04:16:36.940Z,14.00
2019-06-01T04:19:06.212Z,14.10
2019-06-01T04:21:35.414Z,13.90
2019-06-01T04:24:05.889Z,13.90
2019-06-01T04:26:34.885Z,13.60
2019-06-01T04:29:04.977Z,13.30
2019-06-01T04:31:35.519Z,13.30
2019-06-01T04:34:04.605Z,13.60
2019-06-01T04:36:34.123Z,14.20
2019-06-01T04:39:05.344Z,14.50
2019-06-01T04:41:34.773Z,15.00
2019-06-01T04:44:04.036Z,15.60
2019-06-01T04:46:33.397Z,16.10
2019-06-01T04:49:02.814Z,16.40
2019-06-01T04:51:31.860Z,16.60
2019-06-01T04:54:01.411Z,16.90
2019-06-01T04:56:30.679Z,17.30
2019-06-01T04:58:59.490Z,17.50
2019-06-01T05:01:28.847Z,18.00
2019-06-01T05:03:57.912Z,18.10
2019-06-01T05:06:26.953Z,18.60
2019-06-01T05:08:55.767Z,18.80
2019-06-01T05:11:25.258Z,19.20
2019-06-01T05:13:54.387Z,19.70
2019-06-01T05:16:23.265Z,19.80
2019-06-01T05:18:52.648Z,20.00
2019-06-01T05:21:21.706Z,20.40
2019-06-01T05:23:50.837Z,20.40
2019-06-01T05:26:20.251Z,20.60
2019-06-01T05:28:49.865Z,20.70
2019-06-01T05:31:24.314Z,20.80
2019-06-01T05:33:50.190Z,21.10
2019-06-01T05:36:19.240Z,21.50
2019-06-01T05:38:48.499Z,21.70
2019-06-01T05:41:19.787Z,21.50
2019-06-01T05:43:48.163Z,21.10
2019-06-01T05:46:18.038Z,21.30
2019-06-01T05:48:47.550Z,21.40
2019-06-01T05:51:18.476Z,21.30
2019-06-01T05:53:47.686Z,21.10
2019-06-01T05:56:17.079Z,21.30
2019-06-01T05:58:46.486Z,21.30
2019-06-01T06:01:16.458Z,20.80
2019-06-01T06:03:45.871Z,20.70
2019-06-01T06:06:15.811Z,20.60
2019-06-01T06:08:44.770Z,20.40
2019-06-01T06:11:14.920Z,20.30
2019-06-01T06:13:44.044Z,20.00
2019-06-01T06:16:13.884Z,19.80
2019-06-01T06:18:43.150Z,19.80
2019-06-01T06:21:12.444Z,19.90
2019-06-01T06:23:41.260Z,20.00
2019-06-01T06:26:10.220Z,20.30
2019-06-01T06:28:39.455Z,20.60
2019-06-01T06:31:09.121Z,21.30
2019-06-01T06:33:38.145Z,21.40
2019-06-01T06:36:07.273Z,21.60
2019-06-01T06:38:36.842Z,21.30
2019-06-01T06:41:06.647Z,21.50
2019-06-01T06:43:36.178Z,21.50
2019-06-01T06:46:05.475Z,21.40
2019-06-01T06:48:34.974Z,21.50
2019-06-01T06:51:04.255Z,21.50
2019-06-01T06:53:35.228Z,21.50
2019-06-01T06:56:04.418Z,21.60
2019-06-01T06:58:33.450Z,21.70
2019-06-01T07:01:02.894Z,21.70
2019-06-01T07:03:31.986Z,22.00
2019-06-01T07:06:01.427Z,21.90
2019-06-01T07:08:31.338Z,21.90
2019-06-01T07:11:00.890Z,22.20
2019-06-01T07:13:30.240Z,22.20
2019-06-01T07:15:59.516Z,22.10
2019-06-01T07:18:28.382Z,22.10
2019-06-01T07:20:59.030Z,22.10
2019-06-01T07:23:28.253Z,22.10
2019-06-01T07:25:57.947Z,22.00
2019-06-01T07:28:28.349Z,21.80
2019-06-01T07:30:58.151Z,21.80
2019-06-01T07:33:26.961Z,22.00
2019-06-01T07:35:56.106Z,22.50
2019-06-01T07:38:26.710Z,22.90
2019-06-01T07:40:56.226Z,23.00
2019-06-01T07:43:26.776Z,22.90
2019-06-01T07:45:56.438Z,22.70
2019-06-01T07:48:25.551Z,22.90
2019-06-01T07:50:54.944Z,22.90
2019-06-01T07:53:25.523Z,22.80
2019-06-01T07:55:55.078Z,22.90
2019-06-01T07:58:24.642Z,23.00
2019-06-01T08:00:53.798Z,23.20
2019-06-01T08:03:25.748Z,23.30
2019-06-01T08:05:53.407Z,23.40
2019-06-01T08:08:23.348Z,23.90
2019-06-01T08:10:53.061Z,24.10
2019-06-01T08:13:23.416Z,24.20
2019-06-01T08:15:52.370Z,23.60
2019-06-01T08:18:21.983Z,23.70
2019-06-01T08:20:50.854Z,24.30
2019-06-01T08:23:20.027Z,24.70
2019-06-01T08:25:49.345Z,24.70
2019-06-01T08:28:18.413Z,24.50
2019-06-01T08:30:47.743Z,24.40
2019-06-01T08:33:16.562Z,24.70
2019-06-01T08:35:45.786Z,24.90
2019-06-01T08:38:15.750Z,25.00
2019-06-01T08:40:44.659Z,25.10
2019-06-01T08:43:14.020Z,24.90
2019-06-01T08:45:43.810Z,24.90
2019-06-01T08:48:12.966Z,25.10
2019-06-01T08:50:45.296Z,24.80
2019-06-01T08:53:12.743Z,25.00
2019-06-01T08:55:41.535Z,25.80
2019-06-01T08:58:10.687Z,25.60
2019-06-01T09:00:39.546Z,25.90
2019-06-01T09:03:08.780Z,26.20
2019-06-01T09:05:38.766Z,25.70
2019-06-01T09:08:08.267Z,26.30
2019-06-01T09:10:37.699Z,26.60
2019-06-01T09:13:06.842Z,26.60
2019-06-01T09:15:36.167Z,26.30
2019-06-01T09:18:05.781Z,26.70
2019-06-01T09:20:37.527Z,27.30
2019-06-01T09:23:05.185Z,26.50
2019-06-01T09:25:34.384Z,25.30
2019-06-01T09:28:03.843Z,25.60
2019-06-01T09:30:34.009Z,25.20
2019-06-01T09:33:03.195Z,25.40
2019-06-01T09:35:49.043Z,26.10
2019-06-01T09:38:02.950Z,26.50
2019-06-01T09:40:33.469Z,26.60
2019-06-01T09:43:03.079Z,26.50
2019-06-01T09:45:33.338Z,26.50
2019-06-01T09:48:03.636Z,26.60
2019-06-01T09:50:33.393Z,27.00
2019-06-01T09:53:02.652Z,27.50
2019-06-01T09:55:32.690Z,27.80
2019-06-01T09:58:02.286Z,28.00
2019-06-01T10:00:32.392Z,27.30
2019-06-01T10:03:02.013Z,27.60
2019-06-01T10:05:32.347Z,28.20
2019-06-01T10:08:01.628Z,28.60
2019-06-01T10:10:31.889Z,28.90
2019-06-01T10:13:01.284Z,27.80
2019-06-01T10:15:30.767Z,26.90
2019-06-01T10:17:59.846Z,27.00
2019-06-01T10:20:28.663Z,27.40
2019-06-01T10:22:57.844Z,26.80
2019-06-01T10:25:26.706Z,27.00
2019-06-01T10:27:55.921Z,26.80
2019-06-01T10:30:25.273Z,27.10
2019-06-01T10:32:55.193Z,27.40
2019-06-01T10:35:24.748Z,26.50
2019-06-01T10:37:53.805Z,26.70
2019-06-01T10:40:23.559Z,26.80
2019-06-01T10:42:53.339Z,26.00
2019-06-01T10:45:22.518Z,26.20
2019-06-01T10:47:51.622Z,26.20
2019-06-01T10:50:20.868Z,26.30
2019-06-01T10:52:49.686Z,26.50
2019-06-01T10:55:19.341Z,26.10
2019-06-01T10:57:48.994Z,25.60
2019-06-01T11:00:36.472Z,25.70
2019-06-01T11:02:49.472Z,26.10
2019-06-01T11:05:19.107Z,26.30
2019-06-01T11:07:48.459Z,26.50
2019-06-01T11:10:18.308Z,26.30
2019-06-01T11:12:48.020Z,26.40
2019-06-01T11:15:17.453Z,26.50
2019-06-01T11:17:46.880Z,26.50
2019-06-01T11:20:16.049Z,26.80
2019-06-01T11:22:44.863Z,26.20
2019-06-01T11:25:13.942Z,26.20
2019-06-01T11:27:44.016Z,26.10
2019-06-01T11:30:13.652Z,26.10
2019-06-01T11:32:43.671Z,26.00
2019-06-01T11:35:13.772Z,25.80
2019-06-01T11:37:42.798Z,25.80
2019-06-01T11:40:12.140Z,26.10
2019-06-01T11:42:42.806Z,25.80
2019-06-01T11:45:12.272Z,26.20
2019-06-01T11:47:42.944Z,25.90
2019-06-01T11:50:12.141Z,25.80
2019-06-01T11:52:41.406Z,26.30
2019-06-01T11:55:11.585Z,26.30
2019-06-01T11:57:41.619Z,26.20
2019-06-01T12:00:11.324Z,26.20
2019-06-01T12:02:41.802Z,26.20
2019-06-01T12:05:11.660Z,25.70
2019-06-01T12:07:41.929Z,25.90
2019-06-01T12:10:11.696Z,26.20
2019-06-01T12:12:40.628Z,26.00
2019-06-01T12:15:10.220Z,26.30
2019-06-01T12:17:40.562Z,26.10
2019-06-01T12:20:10.262Z,26.30
2019-06-01T12:22:40.771Z,26.40
2019-06-01T12:25:11.001Z,26.20
2019-06-01T12:27:41.432Z,26.10
2019-06-01T12:30:11.741Z,26.50
2019-06-01T12:32:41.967Z,26.60
2019-06-01T12:35:11.536Z,26.50
2019-06-01T12:38:00.804Z,26.60
2019-06-01T12:40:14.401Z,26.60
2019-06-01T12:42:44.130Z,26.40
2019-06-01T12:45:22.443Z,26.70
2019-06-01T12:47:55.550Z,26.90
2019-06-01T12:50:20.590Z,26.80
2019-06-01T12:52:49.991Z,26.40
2019-06-01T12:55:19.488Z,26.40
2019-06-01T12:57:49.271Z,26.40
2019-06-01T13:00:20.059Z,26.60
2019-06-01T13:03:01.188Z,26.80
2019-06-01T13:05:20.502Z,26.90
2019-06-01T13:07:58.535Z,26.50
2019-06-01T13:10:20.474Z,26.80
2019-06-01T13:12:49.603Z,26.90
2019-06-01T13:15:18.767Z,26.80
2019-06-01T13:17:49.453Z,26.70
2019-06-01T13:20:18.714Z,26.40
2019-06-01T13:22:47.728Z,25.70
2019-06-01T13:25:17.138Z,26.20
2019-06-01T13:27:46.779Z,25.90
2019-06-01T13:30:17.979Z,25.70
2019-06-01T13:32:48.580Z,26.10
2019-06-01T13:35:17.985Z,26.30
2019-06-01T13:37:46.850Z,26.40
2019-06-01T13:40:16.885Z,26.30
2019-06-01T13:42:46.991Z,26.50
2019-06-01T13:45:16.347Z,26.70
2019-06-01T13:47:45.483Z,26.60
2019-06-01T13:50:15.078Z,26.60
2019-06-01T13:52:44.187Z,26.40
2019-06-01T13:55:13.731Z,26.70
2019-06-01T13:57:44.169Z,26.60
2019-06-01T14:00:15.820Z,26.20
2019-06-01T14:02:50.421Z,26.40
2019-06-01T14:05:16.902Z,26.50
2019-06-01T14:07:47.447Z,26.50
2019-06-01T14:10:16.999Z,26.50
2019-06-01T14:12:47.324Z,26.30
2019-06-01T14:15:17.485Z,26.40
2019-06-01T14:17:48.006Z,26.50
2019-06-01T14:20:17.066Z,26.50
2019-06-01T14:22:47.403Z,25.90
2019-06-01T14:25:16.963Z,25.90
2019-06-01T14:27:46.123Z,26.10
2019-06-01T14:30:15.455Z,26.20
2019-06-01T14:32:44.584Z,26.10
2019-06-01T14:35:13.454Z,26.40
2019-06-01T14:37:43.003Z,26.60
2019-06-01T14:40:12.453Z,26.60
2019-06-01T14:42:41.718Z,26.60
2019-06-01T14:45:11.226Z,26.40
2019-06-01T14:47:40.276Z,26.50
2019-06-01T14:50:10.213Z,26.40
2019-06-01T14:52:39.099Z,26.30
2019-06-01T14:55:09.103Z,26.00
2019-06-01T14:57:38.051Z,25.90
2019-06-01T15:00:09.428Z,26.00
2019-06-01T15:02:38.331Z,26.40
2019-06-01T15:05:08.444Z,26.30
2019-06-01T15:07:37.874Z,26.40
2019-06-01T15:10:08.671Z,26.70
2019-06-01T15:12:38.446Z,26.80
2019-06-01T15:15:07.929Z,26.20
2019-06-01T15:17:36.847Z,26.50
2019-06-01T15:20:07.179Z,26.70
2019-06-01T15:22:36.321Z,26.40
2019-06-01T15:25:06.807Z,26.40
2019-06-01T15:27:35.976Z,26.40
2019-06-01T15:30:05.685Z,26.60
2019-06-01T15:32:35.013Z,26.40
2019-06-01T15:35:04.455Z,25.90
2019-06-01T15:37:34.315Z,26.20
2019-06-01T15:40:03.334Z,26.20
2019-06-01T15:42:32.616Z,26.50
2019-06-01T15:45:02.442Z,26.50
2019-06-01T15:47:31.730Z,26.50
2019-06-01T15:50:02.631Z,26.40
2019-06-01T15:52:32.050Z,26.10
2019-06-01T15:55:02.909Z,26.20
2019-06-01T15:57:32.709Z,26.30
2019-06-01T16:00:03.086Z,26.40
2019-06-01T16:02:32.374Z,26.50
2019-06-01T16:05:03.268Z,26.70
2019-06-01T16:07:32.935Z,26.80
2019-06-01T16:10:06.426Z,27.10
2019-06-01T16:12:32.955Z,27.30
2019-06-01T16:15:02.295Z,27.10
2019-06-01T16:17:31.946Z,27.50
2019-06-01T16:20:02.319Z,27.30
2019-06-01T16:22:31.787Z,27.30
2019-06-01T16:25:00.831Z,26.80
2019-06-01T16:27:30.127Z,27.10
2019-06-01T16:30:01.262Z,26.80
2019-06-01T16:32:30.404Z,26.20
2019-06-01T16:35:00.908Z,26.30
2019-06-01T16:37:30.215Z,26.40
2019-06-01T16:40:04.323Z,26.50
2019-06-01T16:42:30.562Z,26.10
2019-06-01T16:45:01.584Z,25.90
2019-06-01T16:47:31.105Z,25.80
2019-06-01T16:50:00.150Z,25.80
2019-06-01T16:52:29.115Z,25.70
2019-06-01T16:54:58.699Z,25.60
2019-06-01T16:57:28.310Z,25.50
2019-06-01T16:59:58.344Z,25.30
2019-06-01T17:02:27.827Z,25.10
2019-06-01T17:04:58.545Z,25.10
2019-06-01T17:07:27.870Z,25.20
2019-06-01T17:09:58.676Z,25.40
2019-06-01T17:12:28.487Z,25.60
2019-06-01T17:14:58.870Z,25.70
2019-06-01T17:17:27.938Z,25.60
2019-06-01T17:19:57.204Z,25.40
2019-06-01T17:22:26.338Z,25.40
2019-06-01T17:24:55.886Z,25.40
2019-06-01T17:27:24.906Z,25.10
2019-06-01T17:29:54.552Z,25.10
2019-06-01T17:32:24.768Z,25.10
2019-06-01T17:34:54.888Z,25.10
2019-06-01T17:37:23.862Z,24.90
2019-06-01T17:39:52.943Z,24.80
2019-06-01T17:42:22.000Z,24.60
2019-06-01T17:44:51.285Z,24.70
2019-06-01T17:47:20.420Z,24.70
2019-06-01T17:49:49.239Z,24.70
2019-06-01T17:52:18.668Z,24.80
2019-06-01T17:54:47.518Z,24.90
2019-06-01T17:57:16.384Z,24.70
2019-06-01T17:59:45.367Z,24.70
2019-06-01T18:02:14.639Z,24.70
2019-06-01T18:04:43.485Z,24.90
2019-06-01T18:07:12.354Z,24.70
2019-06-01T18:09:42.278Z,24.60
2019-06-01T18:12:13.283Z,24.70
2019-06-01T18:14:43.062Z,24.70
2019-06-01T18:17:12.579Z,24.50
2019-06-01T18:19:42.024Z,24.50
2019-06-01T18:22:11.169Z,24.50
2019-06-01T18:24:40.554Z,24.50
2019-06-01T18:27:10.628Z,24.40
2019-06-01T18:29:48.119Z,24.30
2019-06-01T18:32:11.651Z,24.00
2019-06-01T18:34:40.742Z,23.70
2019-06-01T18:37:11.380Z,23.50
2019-06-01T18:39:40.732Z,23.40
2019-06-01T18:42:10.303Z,23.40
2019-06-01T18:44:40.041Z,23.30
2019-06-01T18:47:09.823Z,23.20
2019-06-01T18:49:38.806Z,23.10
2019-06-01T18:52:08.630Z,23.00
2019-06-01T18:54:37.943Z,22.90
2019-06-01T18:57:16.635Z,22.90
2019-06-01T18:59:38.234Z,22.90
2019-06-01T19:02:08.396Z,22.80
2019-06-01T19:04:38.627Z,22.70
2019-06-01T19:07:07.638Z,22.60
2019-06-01T19:09:37.111Z,22.50
2019-06-01T19:12:06.770Z,22.40
2019-06-01T19:14:36.147Z,22.10
2019-06-01T19:17:06.207Z,21.90
2019-06-01T19:19:36.123Z,21.70
2019-06-01T19:22:06.296Z,21.70
2019-06-01T19:24:35.955Z,21.60
2019-06-01T19:27:06.573Z,21.30
2019-06-01T19:29:35.705Z,21.10
2019-06-01T19:32:04.655Z,21.00
2019-06-01T19:34:33.815Z,20.90
2019-06-01T19:37:03.353Z,20.70
2019-06-01T19:39:33.039Z,20.70
2019-06-01T19:42:02.074Z,20.60
2019-06-01T19:44:31.352Z,20.70
2019-06-01T19:47:00.887Z,20.60
2019-06-01T19:49:30.642Z,20.60
2019-06-01T19:51:59.962Z,20.60
2019-06-01T19:54:29.247Z,20.50
2019-06-01T19:56:58.166Z,20.40
2019-06-01T19:59:27.666Z,20.40
2019-06-01T20:01:57.097Z,20.30
2019-06-01T20:04:26.242Z,20.30
2019-06-01T20:06:55.503Z,20.20
2019-06-01T20:09:24.675Z,20.20
2019-06-01T20:12:01.996Z,20.10
2019-06-01T20:14:25.203Z,20.10
2019-06-01T20:16:54.367Z,20.10
2019-06-01T20:19:24.268Z,20.00
2019-06-01T20:21:53.787Z,20.00
2019-06-01T20:24:23.130Z,20.00
2019-06-01T20:26:51.939Z,19.90
2019-06-01T20:29:21.793Z,19.90
2019-06-01T20:31:51.726Z,19.90
2019-06-01T20:34:21.776Z,19.80
2019-06-01T20:36:51.183Z,19.80
2019-06-01T20:39:20.926Z,19.80
2019-06-01T20:41:50.366Z,19.80
2019-06-01T20:44:20.972Z,19.70
2019-06-01T20:46:50.406Z,19.70
2019-06-01T20:49:20.717Z,19.80
2019-06-01T20:51:50.230Z,19.80
2019-06-01T20:54:19.407Z,19.80
2019-06-01T20:56:48.874Z,19.80
2019-06-01T20:59:20.271Z,19.80
2019-06-01T21:01:49.570Z,19.80
2019-06-01T21:04:18.616Z,19.70
2019-06-01T21:06:47.989Z,19.60
2019-06-01T21:09:17.847Z,19.60
2019-06-01T21:11:46.991Z,19.50
2019-06-01T21:14:16.843Z,19.50
2019-06-01T21:16:46.308Z,19.40
2019-06-01T21:19:16.267Z,19.40
2019-06-01T21:21:45.618Z,19.30
2019-06-01T21:24:16.846Z,19.30
2019-06-01T21:26:46.256Z,19.20
2019-06-01T21:29:16.599Z,19.10
2019-06-01T21:31:45.811Z,19.20
2019-06-01T21:34:15.474Z,19.10
2019-06-01T21:36:45.283Z,19.00
2019-06-01T21:39:15.442Z,18.80
2019-06-01T21:41:44.410Z,18.70
2019-06-01T21:44:13.397Z,18.50
2019-06-01T21:46:42.944Z,18.20
2019-06-01T21:49:12.102Z,18.10
2019-06-01T21:51:41.347Z,17.90
2019-06-01T21:54:10.758Z,17.70
2019-06-01T21:56:41.107Z,17.60
2019-06-01T21:59:10.613Z,17.60
2019-06-01T22:01:39.620Z,17.60
2019-06-01T22:04:08.859Z,17.40
2019-06-01T22:06:38.610Z,17.20
2019-06-01T22:09:08.115Z,16.90
2019-06-01T22:11:38.716Z,17.00
2019-06-01T22:14:08.020Z,17.10
2019-06-01T22:16:37.298Z,16.90
2019-06-01T22:19:06.439Z,16.70
2019-06-01T22:21:35.944Z,16.70
2019-06-01T22:24:05.152Z,16.60
2019-06-01T22:26:34.792Z,16.40
2019-06-01T22:29:04.287Z,16.20
2019-06-01T22:31:33.976Z,16.20
2019-06-01T22:34:02.821Z,16.00
2019-06-01T22:36:32.990Z,15.90
2019-06-01T22:39:02.883Z,15.80
2019-06-01T22:41:32.329Z,15.70
2019-06-01T22:44:01.643Z,15.60
2019-06-01T22:46:30.794Z,15.70
2019-06-01T22:49:00.103Z,15.60
2019-06-01T22:51:29.920Z,15.70
2019-06-01T22:53:58.840Z,15.60
2019-06-01T22:56:27.782Z,15.50
2019-06-01T22:58:57.178Z,15.50
2019-06-01T23:01:26.805Z,15.40
2019-06-01T23:03:56.095Z,15.30
2019-06-01T23:06:25.501Z,15.30
2019-06-01T23:08:54.323Z,15.10
2019-06-01T23:11:23.883Z,15.10
2019-06-01T23:13:53.949Z,14.90
2019-06-01T23:16:23.697Z,14.80
2019-06-01T23:18:52.615Z,14.80
2019-06-01T23:21:22.007Z,14.70
2019-06-01T23:23:51.456Z,14.70
2019-06-01T23:26:20.278Z,14.60
2019-06-01T23:28:49.339Z,14.50
2019-06-01T23:31:18.658Z,14.50
2019-06-01T23:33:47.446Z,14.50
2019-06-01T23:36:16.331Z,14.80
2019-06-01T23:38:45.614Z,14.80
2019-06-01T23:41:14.503Z,14.70
2019-06-01T23:43:43.559Z,14.60
2019-06-01T23:46:12.535Z,14.60
2019-06-01T23:48:41.754Z,14.50
2019-06-01T23:51:10.815Z,14.60
2019-06-01T23:53:40.815Z,14.60
2019-06-01T23:56:10.059Z,14.50
2019-06-01T23:58:38.936Z,14.70
